Chanute Martin Johnson, KS

6:22 AM CDT on October 25, 2014 (GMT -0500)
Chanute Martin Johnson | Change Station
CLOSE
Current Station
Airport
Location: Chanute,
Elevation: 1001 ft
Nearby Weather Stations

Elev 1001 ft 37.67 °N, 95.48 °W | Updated 12 minutes ago

Fog
Fog
53 °F
Feels Like 53 °F
N
0
Wind Variable Wind from North

Today
High -- | Low -- °F
--% Chance of Precip.
Yesterday
High -- | Low -- °F
Precip. -- in
7:39 AM 6:31 PM
Waxing Crescent, 3% visible
Pressure 30.05 in
Visibility 0.2 miles
Clouds
Dew Point 53 °F
Humidity 100%
Rainfall 0.00 in
Snow Depth Not available.
UV Not available.
Pollen 2.90 out of 12
Air Quality Not available.
Flu Activity No Activity
SPECI KCNU 251110Z AUTO 00000KT 1/4SM FG VV003 12/12 A3005 RMK AO2 T01170117

More Conditions Fewer Conditions

Pressure 30.05 in
Visibility 0.2 miles
Clouds
Dew Point 53 °F
Humidity 100%
Rainfall 0.00 in
Snow Depth Not available.
UV Not available.
Pollen 2.90 out of 12
Air Quality Not available.
Flu Activity No Activity
SPECI KCNU 251110Z AUTO 00000KT 1/4SM FG VV003 12/12 A3005 RMK AO2 T01170117

More Conditions Fewer Conditions

10-Day Weather Forecast

Almanac

Astronomy

Oct. 25, 2014 Rise Set
Actual Time 7:39 AM CDT 6:31 PM CDT
Civil Twilight 7:13 AM CDT 6:58 PM CDT
Nautical Twilight 6:42 AM CDT 7:28 PM CDT
Astronomical Twilight 6:12 AM CDT 7:59 PM CDT
Moon 9:18 AM CDT 7:56 PM CDT
Length of Visible Light 11h 45m
Length of Day
10h 51m
Tomorrow will be 2m 13s shorter.
Waxing Crescent, 3% of the Moon is Illuminated
Today
Waxing Crescent
Oct 30
First Quarter
Nov 6
Full
Nov 14
Last Quarter
Nov 22
New

Today's Extremes

State Highs State Lows

Community

WunderPhotos

Upload Photos

1,764,810 photos uploaded!

Nearby

Snow Depth

Station Depth Elevation
No new snow has been reported.

Earthquake Activity

City Distance Mag. Time & Date
Pawnee, Oklahoma 124 miles 2.6 7:24 PM CDT
2014-10-24
Pawnee, Oklahoma 122 miles 2.7 1:06 AM CDT
2014-10-23
Langston, Oklahoma 157 miles 2.9 10:03 AM CDT
2014-10-22
Langston, Oklahoma 157 miles 2.6 8:31 AM CDT
2014-10-22
Minimum magnitude displayed is 2.5.

Coastal Water Temperatures

Place Temperature
No Stations Reporting

Nearby Weather Stations